createdAt,value
2019-05-01T00:02:44.479Z,53.70
2019-05-01T00:05:17.361Z,57.53
2019-05-01T00:07:48.704Z,50.43
2019-05-01T00:10:21.465Z,49.50
2019-05-01T00:12:51.913Z,53.68
2019-05-01T00:15:25.613Z,54.03
2019-05-01T00:17:57.065Z,53.80
2019-05-01T00:20:27.900Z,59.18
2019-05-01T00:22:58.740Z,59.85
2019-05-01T00:25:30.324Z,61.55
2019-05-01T00:28:02.656Z,59.60
2019-05-01T00:30:34.411Z,64.07
2019-05-01T00:33:05.350Z,63.40
2019-05-01T00:35:35.979Z,58.98
2019-05-01T00:38:06.916Z,60.67
2019-05-01T00:40:38.675Z,60.15
2019-05-01T00:43:09.614Z,62.75
2019-05-01T00:45:41.869Z,64.80
2019-05-01T00:48:12.671Z,60.12
2019-05-01T00:50:44.866Z,60.78
2019-05-01T00:53:15.514Z,61.23
2019-05-01T00:56:06.483Z,66.85
2019-05-01T00:58:51.182Z,62.93
2019-05-01T01:01:39.929Z,63.95
2019-05-01T01:04:12.652Z,63.78
2019-05-01T01:06:43.554Z,64.60
2019-05-01T01:09:14.494Z,64.50
2019-05-01T01:11:45.425Z,67.72
2019-05-01T01:14:16.460Z,64.45
2019-05-01T01:16:49.186Z,67.65
2019-05-01T01:19:20.183Z,72.12
2019-05-01T01:21:51.821Z,66.82
2019-05-01T01:24:22.363Z,76.62
2019-05-01T01:26:53.302Z,72.22
2019-05-01T01:29:24.426Z,69.77
2019-05-01T01:31:55.483Z,71.20
2019-05-01T01:34:26.432Z,79.97
2019-05-01T01:36:57.148Z,83.62
2019-05-01T01:39:28.598Z,80.28
2019-05-01T01:42:00.154Z,75.47
2019-05-01T01:44:35.796Z,80.55
2019-05-01T01:47:06.738Z,76.42
2019-05-01T01:49:38.073Z,76.42
2019-05-01T01:52:08.813Z,86.02
2019-05-01T01:54:39.653Z,80.95
2019-05-01T01:57:10.839Z,84.42
2019-05-01T01:59:42.147Z,81.30
2019-05-01T02:02:21.982Z,90.50
2019-05-01T02:05:06.338Z,85.85
2019-05-01T02:07:38.543Z,88.25
2019-05-01T02:10:09.539Z,95.32
2019-05-01T02:12:41.161Z,90.87
2019-05-01T02:15:12.270Z,91.53
2019-05-01T02:17:44.508Z,96.25
2019-05-01T02:20:16.164Z,90.05
2019-05-01T02:22:47.101Z,86.85
2019-05-01T02:25:18.138Z,101.53
2019-05-01T02:27:53.682Z,90.80
2019-05-01T02:30:26.566Z,96.92
2019-05-01T02:32:59.323Z,101.40
2019-05-01T02:35:31.335Z,97.22
2019-05-01T02:38:04.499Z,92.65
2019-05-01T02:40:51.615Z,99.67
2019-05-01T02:43:24.114Z,98.12
2019-05-01T02:45:58.118Z,89.50
2019-05-01T02:48:31.647Z,101.87
2019-05-01T02:53:35.925Z,94.03
2019-05-01T02:56:22.768Z,96.53
2019-05-01T02:58:56.982Z,91.12
2019-05-01T03:01:45.063Z,92.90
2019-05-01T03:04:01.286Z,93.37
2019-05-01T03:06:33.857Z,90.35
2019-05-01T03:09:07.867Z,89.30
2019-05-01T03:14:12.838Z,81.22
2019-05-01T03:19:16.019Z,86.82
2019-05-01T03:21:51.189Z,91.80
2019-05-01T03:24:24.492Z,90.25
2019-05-01T03:26:55.694Z,86.40
2019-05-01T03:29:26.859Z,89.60
2019-05-01T03:32:15.940Z,95.32
2019-05-01T03:34:30.869Z,58.68
2019-05-01T03:37:01.470Z,91.80
2019-05-01T03:39:32.425Z,87.82
2019-05-01T03:42:04.532Z,85.60
2019-05-01T03:44:35.123Z,88.05
2019-05-01T03:47:07.407Z,90.70
2019-05-01T03:49:39.043Z,90.60
2019-05-01T03:52:09.776Z,89.65
2019-05-01T03:54:42.455Z,93.27
2019-05-01T03:57:13.883Z,96.13
2019-05-01T03:59:45.027Z,90.42
2019-05-01T04:02:33.202Z,96.90
2019-05-01T04:04:56.399Z,83.65
2019-05-01T04:07:28.041Z,87.37
2019-05-01T04:09:58.834Z,88.65
2019-05-01T04:12:30.200Z,89.80
2019-05-01T04:15:01.523Z,94.80
2019-05-01T04:17:36.659Z,91.42
2019-05-01T04:20:08.111Z,91.40
2019-05-01T04:22:39.041Z,86.63
2019-05-01T04:25:10.952Z,95.38
2019-05-01T04:27:43.175Z,93.58
2019-05-01T04:30:25.579Z,91.92
2019-05-01T04:32:58.260Z,97.75
2019-05-01T04:35:30.770Z,85.62
2019-05-01T04:38:02.501Z,64.63
2019-05-01T04:40:34.961Z,76.15
2019-05-01T04:43:06.614Z,75.45
2019-05-01T04:45:37.963Z,71.82
2019-05-01T04:48:09.490Z,76.72
2019-05-01T04:50:41.166Z,72.75
2019-05-01T04:53:11.898Z,71.42
2019-05-01T04:55:45.071Z,69.60
2019-05-01T04:58:16.926Z,73.07
2019-05-01T05:00:47.906Z,75.30
2019-05-01T05:03:22.616Z,67.15
2019-05-01T05:05:53.648Z,74.00
2019-05-01T05:08:24.689Z,68.00
2019-05-01T05:11:00.590Z,70.87
2019-05-01T05:13:46.948Z,68.62
2019-05-01T05:16:19.823Z,68.28
2019-05-01T05:18:50.898Z,69.20
2019-05-01T05:21:24.218Z,69.53
2019-05-01T05:23:55.501Z,76.00
2019-05-01T05:26:26.335Z,62.60
2019-05-01T05:28:58.865Z,59.88
2019-05-01T05:31:29.972Z,60.90
2019-05-01T05:34:02.293Z,84.05
2019-05-01T05:36:35.516Z,69.35
2019-05-01T05:39:09.214Z,61.90
2019-05-01T05:41:40.517Z,63.35
2019-05-01T05:44:11.369Z,62.80
2019-05-01T05:46:42.026Z,63.42
2019-05-01T05:49:13.286Z,65.97
2019-05-01T05:51:47.174Z,61.10
2019-05-01T05:57:08.099Z,66.12
2019-05-01T05:59:52.660Z,57.35
2019-05-01T06:02:29.882Z,62.17
2019-05-01T06:05:22.695Z,57.30
2019-05-01T06:07:57.733Z,62.40
2019-05-01T06:10:35.214Z,51.83
2019-05-01T06:13:18.008Z,53.00
2019-05-01T06:15:51.526Z,50.17
2019-05-01T06:18:27.381Z,46.23
2019-05-01T06:21:02.367Z,54.83
2019-05-01T06:23:45.436Z,48.50
2019-05-01T06:26:31.900Z,54.00
2019-05-01T06:29:02.359Z,53.20
2019-05-01T06:31:33.714Z,53.02
2019-05-01T06:34:04.956Z,43.73
2019-05-01T06:36:35.889Z,48.95
2019-05-01T06:39:11.712Z,40.10
2019-05-01T06:41:43.211Z,40.12
2019-05-01T06:44:17.183Z,47.05
2019-05-01T06:47:03.271Z,42.23
2019-05-01T06:49:45.599Z,43.95
2019-05-01T06:52:24.901Z,45.90
2019-05-01T06:54:54.167Z,44.77
2019-05-01T06:57:26.119Z,40.83
2019-05-01T07:00:03.155Z,48.17
2019-05-01T07:02:35.077Z,42.88
2019-05-01T07:05:24.954Z,48.75
2019-05-01T07:07:56.922Z,49.10
2019-05-01T07:10:39.110Z,51.08
2019-05-01T07:13:05.016Z,47.23
2019-05-01T07:15:38.824Z,42.88
2019-05-01T07:18:11.456Z,39.30
2019-05-01T07:20:51.332Z,44.85
2019-05-01T07:23:22.690Z,43.87
2019-05-01T07:25:53.400Z,52.73
2019-05-01T07:28:29.010Z,46.60
2019-05-01T07:30:59.475Z,45.28
2019-05-01T07:33:32.263Z,46.10
2019-05-01T07:36:07.087Z,49.33
2019-05-01T07:38:38.367Z,46.60
2019-05-01T07:44:01.014Z,45.78
2019-05-01T07:46:54.381Z,48.33
2019-05-01T07:49:25.921Z,53.08
2019-05-01T07:54:26.859Z,54.20
2019-05-01T07:56:58.635Z,49.05
2019-05-01T07:59:30.586Z,58.27
2019-05-01T08:02:02.668Z,53.00
2019-05-01T08:04:36.279Z,45.08
2019-05-01T08:07:06.252Z,41.60
2019-05-01T08:09:38.835Z,45.15
2019-05-01T08:12:09.358Z,51.70
2019-05-01T08:14:40.293Z,43.70
2019-05-01T08:17:18.107Z,44.63
2019-05-01T08:19:53.231Z,35.48
2019-05-01T08:22:25.939Z,40.78
2019-05-01T08:24:58.641Z,40.70
2019-05-01T08:27:43.246Z,38.88
2019-05-01T08:30:32.513Z,38.50
2019-05-01T08:33:09.830Z,38.95
2019-05-01T08:35:40.858Z,50.43
2019-05-01T08:38:11.673Z,39.23
2019-05-01T08:40:44.455Z,56.43
2019-05-01T08:43:18.158Z,51.88
2019-05-01T08:45:52.815Z,92.82
2019-05-01T08:48:24.947Z,71.12
2019-05-01T08:50:59.396Z,43.10
2019-05-01T08:53:29.793Z,37.83
2019-05-01T08:56:01.445Z,36.53
2019-05-01T08:58:32.384Z,33.95
2019-05-01T09:01:05.077Z,35.78
2019-05-01T09:03:37.847Z,36.33
2019-05-01T09:06:08.414Z,35.80
2019-05-01T09:08:39.492Z,35.63
2019-05-01T09:11:10.565Z,31.73
2019-05-01T09:13:43.437Z,36.07
2019-05-01T09:16:14.369Z,32.25
2019-05-01T09:18:46.021Z,36.45
2019-05-01T09:21:16.959Z,30.48
2019-05-01T09:23:51.477Z,28.87
2019-05-01T09:26:33.890Z,30.50
2019-05-01T09:29:23.990Z,30.65
2019-05-01T09:31:56.701Z,31.87
2019-05-01T09:34:27.220Z,33.42
2019-05-01T09:36:58.235Z,36.05
2019-05-01T09:39:30.602Z,32.25
2019-05-01T09:42:01.224Z,38.23
2019-05-01T09:44:34.049Z,36.45
2019-05-01T09:47:06.053Z,35.40
2019-05-01T09:49:36.710Z,38.28
2019-05-01T09:52:18.904Z,34.55
2019-05-01T09:54:58.640Z,34.38
2019-05-01T09:57:30.923Z,39.30
2019-05-01T10:00:02.865Z,31.90
2019-05-01T10:02:33.403Z,42.45
2019-05-01T10:05:07.892Z,42.38
2019-05-01T10:10:12.150Z,35.38
2019-05-01T10:12:46.941Z,38.95
2019-05-01T10:15:15.766Z,29.25
2019-05-01T10:17:46.599Z,25.85
2019-05-01T10:20:17.750Z,27.62
2019-05-01T10:22:48.888Z,30.60
2019-05-01T10:25:19.827Z,25.92
2019-05-01T10:27:53.041Z,23.90
2019-05-01T10:30:43.922Z,24.20
2019-05-01T10:33:16.186Z,20.10
2019-05-01T10:36:03.918Z,23.57
2019-05-01T10:38:39.986Z,22.65
2019-05-01T10:41:10.444Z,15.38
2019-05-01T10:43:41.337Z,25.40
2019-05-01T10:46:11.866Z,20.35
2019-05-01T10:48:42.711Z,21.42
2019-05-01T10:51:13.476Z,16.48
2019-05-01T10:53:44.166Z,26.42
2019-05-01T10:56:14.899Z,22.35
2019-05-01T10:58:46.178Z,18.42
2019-05-01T11:01:18.314Z,20.32
2019-05-01T11:03:49.156Z,21.57
2019-05-01T11:06:20.426Z,19.35
2019-05-01T11:08:52.466Z,20.25
2019-05-01T11:11:23.183Z,19.65
2019-05-01T11:13:54.023Z,23.12
2019-05-01T11:16:27.008Z,16.00
